sensor_id;sensor_type;location;lat;lon;timestamp;pressure;altitude;pressure_sealevel;temperature
73734;BMP280;62039;50.000;9.064;2022-09-09T00:01:45;99869.59;;;15.99
73734;BMP280;62039;50.000;9.064;2022-09-09T00:04:16;99861.50;;;15.94
73734;BMP280;62039;50.000;9.064;2022-09-09T00:06:50;99867.16;;;15.91
73734;BMP280;62039;50.000;9.064;2022-09-09T00:09:21;99853.41;;;15.89
73734;BMP280;62039;50.000;9.064;2022-09-09T00:11:51;99853.00;;;15.86
73734;BMP280;62039;50.000;9.064;2022-09-09T00:14:23;99857.88;;;15.82
73734;BMP280;62039;50.000;9.064;2022-09-09T00:16:55;99850.38;;;15.79
73734;BMP280;62039;50.000;9.064;2022-09-09T00:19:26;99853.22;;;15.78
73734;BMP280;62039;50.000;9.064;2022-09-09T00:22:13;99849.00;;;15.77
73734;BMP280;62039;50.000;9.064;2022-09-09T00:24:43;99854.47;;;15.75
73734;BMP280;62039;50.000;9.064;2022-09-09T00:27:17;99849.38;;;15.74
73734;BMP280;62039;50.000;9.064;2022-09-09T00:29:51;99850.59;;;15.71
73734;BMP280;62039;50.000;9.064;2022-09-09T00:32:19;99844.75;;;15.69
73734;BMP280;62039;50.000;9.064;2022-09-09T00:34:49;99845.75;;;15.68
73734;BMP280;62039;50.000;9.064;2022-09-09T00:37:18;99844.31;;;15.65
73734;BMP280;62039;50.000;9.064;2022-09-09T00:39:46;99841.69;;;15.65
73734;BMP280;62039;50.000;9.064;2022-09-09T00:42:15;99841.91;;;15.64
73734;BMP280;62039;50.000;9.064;2022-09-09T00:44:58;99845.75;;;15.61
73734;BMP280;62039;50.000;9.064;2022-09-09T00:47:40;99840.06;;;15.58
73734;BMP280;62039;50.000;9.064;2022-09-09T00:50:17;99846.59;;;15.55
73734;BMP280;62039;50.000;9.064;2022-09-09T00:52:52;99845.16;;;15.53
73734;BMP280;62039;50.000;9.064;2022-09-09T00:55:27;99857.69;;;15.51
73734;BMP280;62039;50.000;9.064;2022-09-09T00:57:57;99853.66;;;15.48
73734;BMP280;62039;50.000;9.064;2022-09-09T01:00:27;99857.13;;;15.49
73734;BMP280;62039;50.000;9.064;2022-09-09T01:03:14;99854.69;;;15.47
73734;BMP280;62039;50.000;9.064;2022-09-09T01:05:49;99853.84;;;15.47
73734;BMP280;62039;50.000;9.064;2022-09-09T01:08:32;99853.22;;;15.45
73734;BMP280;62039;50.000;9.064;2022-09-09T01:11:03;99858.91;;;15.42
73734;BMP280;62039;50.000;9.064;2022-09-09T01:13:31;99851.81;;;15.42
73734;BMP280;62039;50.000;9.064;2022-09-09T01:16:02;99854.22;;;15.44
73734;BMP280;62039;50.000;9.064;2022-09-09T01:18:32;99841.28;;;15.42
73734;BMP280;62039;50.000;9.064;2022-09-09T01:21:05;99845.75;;;15.42
73734;BMP280;62039;50.000;9.064;2022-09-09T01:23:51;99838.25;;;15.39
73734;BMP280;62039;50.000;9.064;2022-09-09T01:26:26;99839.25;;;15.38
73734;BMP280;62039;50.000;9.064;2022-09-09T01:28:54;99837.03;;;15.35
73734;BMP280;62039;50.000;9.064;2022-09-09T01:31:23;99838.66;;;15.36
73734;BMP280;62039;50.000;9.064;2022-09-09T01:33:52;99834.59;;;15.33
73734;BMP280;62039;50.000;9.064;2022-09-09T01:36:24;99839.06;;;15.33
73734;BMP280;62039;50.000;9.064;2022-09-09T01:38:52;99838.25;;;15.32
73734;BMP280;62039;50.000;9.064;2022-09-09T01:41:19;99833.00;;;15.32
73734;BMP280;62039;50.000;9.064;2022-09-09T01:43:48;99836.44;;;15.33
73734;BMP280;62039;50.000;9.064;2022-09-09T01:46:16;99836.44;;;15.33
73734;BMP280;62039;50.000;9.064;2022-09-09T01:48:43;99831.16;;;15.33
73734;BMP280;62039;50.000;9.064;2022-09-09T01:51:09;99846.94;;;15.33
73734;BMP280;62039;50.000;9.064;2022-09-09T01:53:37;99843.31;;;15.34
73734;BMP280;62039;50.000;9.064;2022-09-09T01:56:12;99832.78;;;15.34
73734;BMP280;62039;50.000;9.064;2022-09-09T01:58:52;99834.00;;;15.31
73734;BMP280;62039;50.000;9.064;2022-09-09T02:01:28;99833.41;;;15.29
73734;BMP280;62039;50.000;9.064;2022-09-09T02:04:02;99826.72;;;15.26
73734;BMP280;62039;50.000;9.064;2022-09-09T02:06:34;99830.34;;;15.25
73734;BMP280;62039;50.000;9.064;2022-09-09T02:09:04;99842.13;;;15.23
73734;BMP280;62039;50.000;9.064;2022-09-09T02:11:31;99847.56;;;15.21
73734;BMP280;62039;50.000;9.064;2022-09-09T02:14:02;99848.56;;;15.20
73734;BMP280;62039;50.000;9.064;2022-09-09T02:16:33;99845.31;;;15.18
73734;BMP280;62039;50.000;9.064;2022-09-09T02:19:03;99847.16;;;15.18
73734;BMP280;62039;50.000;9.064;2022-09-09T02:21:32;99851.41;;;15.19
73734;BMP280;62039;50.000;9.064;2022-09-09T02:24:01;99840.88;;;15.19
73734;BMP280;62039;50.000;9.064;2022-09-09T02:26:28;99843.31;;;15.20
73734;BMP280;62039;50.000;9.064;2022-09-09T02:28:57;99844.94;;;15.21
73734;BMP280;62039;50.000;9.064;2022-09-09T02:31:26;99843.31;;;15.20
73734;BMP280;62039;50.000;9.064;2022-09-09T02:33:56;99849.59;;;15.19
73734;BMP280;62039;50.000;9.064;2022-09-09T02:36:26;99861.94;;;15.19
73734;BMP280;62039;50.000;9.064;2022-09-09T02:38:54;99853.41;;;15.17
73734;BMP280;62039;50.000;9.064;2022-09-09T02:41:24;99847.38;;;15.16
73734;BMP280;62039;50.000;9.064;2022-09-09T02:43:52;99840.50;;;15.15
73734;BMP280;62039;50.000;9.064;2022-09-09T02:46:29;99846.34;;;15.17
73734;BMP280;62039;50.000;9.064;2022-09-09T02:49:03;99842.91;;;15.17
73734;BMP280;62039;50.000;9.064;2022-09-09T02:51:35;99851.00;;;15.15
73734;BMP280;62039;50.000;9.064;2022-09-09T02:54:10;99849.38;;;15.14
73734;BMP280;62039;50.000;9.064;2022-09-09T02:56:45;99858.28;;;15.13
73734;BMP280;62039;50.000;9.064;2022-09-09T02:59:13;99846.56;;;15.09
73734;BMP280;62039;50.000;9.064;2022-09-09T03:01:41;99848.38;;;15.09
73734;BMP280;62039;50.000;9.064;2022-09-09T03:04:08;99851.81;;;15.09
73734;BMP280;62039;50.000;9.064;2022-09-09T03:06:34;99859.72;;;15.09
73734;BMP280;62039;50.000;9.064;2022-09-09T03:09:01;99855.84;;;15.12
73734;BMP280;62039;50.000;9.064;2022-09-09T03:11:27;99850.38;;;15.13
73734;BMP280;62039;50.000;9.064;2022-09-09T03:13:54;99853.63;;;15.15
73734;BMP280;62039;50.000;9.064;2022-09-09T03:16:21;99844.75;;;15.16
73734;BMP280;62039;50.000;9.064;2022-09-09T03:18:49;99847.38;;;15.16
73734;BMP280;62039;50.000;9.064;2022-09-09T03:21:15;99857.09;;;15.16
73734;BMP280;62039;50.000;9.064;2022-09-09T03:23:42;99852.63;;;15.16
73734;BMP280;62039;50.000;9.064;2022-09-09T03:26:08;99845.75;;;15.15
73734;BMP280;62039;50.000;9.064;2022-09-09T03:28:35;99854.22;;;15.17
73734;BMP280;62039;50.000;9.064;2022-09-09T03:31:02;99849.78;;;15.18
73734;BMP280;62039;50.000;9.064;2022-09-09T03:33:29;99843.69;;;15.17
73734;BMP280;62039;50.000;9.064;2022-09-09T03:35:57;99847.97;;;15.18
73734;BMP280;62039;50.000;9.064;2022-09-09T03:38:24;99847.75;;;15.20
73734;BMP280;62039;50.000;9.064;2022-09-09T03:40:51;99846.75;;;15.21
73734;BMP280;62039;50.000;9.064;2022-09-09T03:43:17;99844.13;;;15.21
73734;BMP280;62039;50.000;9.064;2022-09-09T03:45:45;99848.19;;;15.23
73734;BMP280;62039;50.000;9.064;2022-09-09T03:48:11;99851.59;;;15.24
73734;BMP280;62039;50.000;9.064;2022-09-09T03:50:38;99848.97;;;15.24
73734;BMP280;62039;50.000;9.064;2022-09-09T03:53:06;99850.59;;;15.25
73734;BMP280;62039;50.000;9.064;2022-09-09T03:55:32;99861.13;;;15.25
73734;BMP280;62039;50.000;9.064;2022-09-09T03:57:59;99851.41;;;15.25
73734;BMP280;62039;50.000;9.064;2022-09-09T04:00:25;99849.78;;;15.24
73734;BMP280;62039;50.000;9.064;2022-09-09T04:02:52;99845.13;;;15.26
73734;BMP280;62039;50.000;9.064;2022-09-09T04:05:18;99841.50;;;15.27
73734;BMP280;62039;50.000;9.064;2022-09-09T04:07:45;99847.38;;;15.29
73734;BMP280;62039;50.000;9.064;2022-09-09T04:10:13;99843.13;;;15.28
73734;BMP280;62039;50.000;9.064;2022-09-09T04:12:39;99835.63;;;15.25
73734;BMP280;62039;50.000;9.064;2022-09-09T04:15:06;99830.56;;;15.24
73734;BMP280;62039;50.000;9.064;2022-09-09T04:17:33;99824.69;;;15.22
73734;BMP280;62039;50.000;9.064;2022-09-09T04:19:59;99825.91;;;15.19
73734;BMP280;62039;50.000;9.064;2022-09-09T04:22:26;99827.09;;;15.17
73734;BMP280;62039;50.000;9.064;2022-09-09T04:24:52;99831.78;;;15.15
73734;BMP280;62039;50.000;9.064;2022-09-09T04:27:20;99844.13;;;15.14
73734;BMP280;62039;50.000;9.064;2022-09-09T04:29:47;99844.13;;;15.14
73734;BMP280;62039;50.000;9.064;2022-09-09T04:32:13;99846.34;;;15.17
73734;BMP280;62039;50.000;9.064;2022-09-09T04:34:40;99838.66;;;15.22
73734;BMP280;62039;50.000;9.064;2022-09-09T04:37:06;99839.25;;;15.24
73734;BMP280;62039;50.000;9.064;2022-09-09T04:39:33;99848.56;;;15.27
73734;BMP280;62039;50.000;9.064;2022-09-09T04:41:59;99845.75;;;15.28
73734;BMP280;62039;50.000;9.064;2022-09-09T04:44:27;99839.06;;;15.33
73734;BMP280;62039;50.000;9.064;2022-09-09T04:46:54;99838.88;;;15.34
73734;BMP280;62039;50.000;9.064;2022-09-09T04:49:20;99851.59;;;15.37
73734;BMP280;62039;50.000;9.064;2022-09-09T04:51:48;99844.53;;;15.38
73734;BMP280;62039;50.000;9.064;2022-09-09T04:54:15;99839.25;;;15.38
73734;BMP280;62039;50.000;9.064;2022-09-09T04:56:41;99846.94;;;15.39
73734;BMP280;62039;50.000;9.064;2022-09-09T04:59:08;99846.94;;;15.39
73734;BMP280;62039;50.000;9.064;2022-09-09T05:01:35;99852.22;;;15.39
73734;BMP280;62039;50.000;9.064;2022-09-09T05:04:02;99853.44;;;15.37
73734;BMP280;62039;50.000;9.064;2022-09-09T05:06:29;99853.44;;;15.37
73734;BMP280;62039;50.000;9.064;2022-09-09T05:08:55;99859.31;;;15.32
73734;BMP280;62039;50.000;9.064;2022-09-09T05:11:23;99862.34;;;15.29
73734;BMP280;62039;50.000;9.064;2022-09-09T05:13:50;99855.66;;;15.26
73734;BMP280;62039;50.000;9.064;2022-09-09T05:16:18;99864.56;;;15.25
73734;BMP280;62039;50.000;9.064;2022-09-09T05:18:47;99856.88;;;15.24
73734;BMP280;62039;50.000;9.064;2022-09-09T05:21:14;99866.59;;;15.23
73734;BMP280;62039;50.000;9.064;2022-09-09T05:23:41;99867.59;;;15.22
73734;BMP280;62039;50.000;9.064;2022-09-09T05:26:12;99879.75;;;15.23
73734;BMP280;62039;50.000;9.064;2022-09-09T05:28:43;99869.44;;;15.22
73734;BMP280;62039;50.000;9.064;2022-09-09T05:31:11;99873.69;;;15.23
73734;BMP280;62039;50.000;9.064;2022-09-09T05:33:39;99874.06;;;15.26
73734;BMP280;62039;50.000;9.064;2022-09-09T05:36:09;99877.13;;;15.30
73734;BMP280;62039;50.000;9.064;2022-09-09T05:38:36;99884.81;;;15.31
73734;BMP280;62039;50.000;9.064;2022-09-09T05:41:03;99889.47;;;15.36
73734;BMP280;62039;50.000;9.064;2022-09-09T05:43:30;99883.78;;;15.39
73734;BMP280;62039;50.000;9.064;2022-09-09T05:46:00;99888.66;;;15.42
73734;BMP280;62039;50.000;9.064;2022-09-09T05:48:28;99891.69;;;15.46
73734;BMP280;62039;50.000;9.064;2022-09-09T05:50:54;99895.94;;;15.47
73734;BMP280;62039;50.000;9.064;2022-09-09T05:53:22;99887.69;;;15.50
73734;BMP280;62039;50.000;9.064;2022-09-09T05:55:49;99896.41;;;15.50
73734;BMP280;62039;50.000;9.064;2022-09-09T05:58:15;99896.19;;;15.52
73734;BMP280;62039;50.000;9.064;2022-09-09T06:00:42;99901.25;;;15.53
73734;BMP280;62039;50.000;9.064;2022-09-09T06:03:10;99904.50;;;15.55
73734;BMP280;62039;50.000;9.064;2022-09-09T06:05:37;99910.16;;;15.59
73734;BMP280;62039;50.000;9.064;2022-09-09T06:08:03;99906.13;;;15.63
73734;BMP280;62039;50.000;9.064;2022-09-09T06:10:31;99899.41;;;15.67
73734;BMP280;62039;50.000;9.064;2022-09-09T06:12:58;99902.25;;;15.72
73734;BMP280;62039;50.000;9.064;2022-09-09T06:15:24;99913.78;;;15.78
73734;BMP280;62039;50.000;9.064;2022-09-09T06:17:54;99909.31;;;15.85
73734;BMP280;62039;50.000;9.064;2022-09-09T06:20:20;99918.84;;;15.92
73734;BMP280;62039;50.000;9.064;2022-09-09T06:22:47;99923.88;;;16.00
73734;BMP280;62039;50.000;9.064;2022-09-09T06:25:14;99923.47;;;16.10
73734;BMP280;62039;50.000;9.064;2022-09-09T06:27:42;99915.34;;;16.18
73734;BMP280;62039;50.000;9.064;2022-09-09T06:30:09;99917.97;;;16.25
73734;BMP280;62039;50.000;9.064;2022-09-09T06:32:36;99917.97;;;16.31
73734;BMP280;62039;50.000;9.064;2022-09-09T06:35:03;99910.25;;;16.36
73734;BMP280;62039;50.000;9.064;2022-09-09T06:37:29;99911.25;;;16.42
73734;BMP280;62039;50.000;9.064;2022-09-09T06:39:56;99905.16;;;16.48
73734;BMP280;62039;50.000;9.064;2022-09-09T06:42:22;99913.22;;;16.53
73734;BMP280;62039;50.000;9.064;2022-09-09T06:44:50;99910.00;;;16.58
73734;BMP280;62039;50.000;9.064;2022-09-09T06:47:17;99909.56;;;16.61
73734;BMP280;62039;50.000;9.064;2022-09-09T06:49:43;99905.50;;;16.65
73734;BMP280;62039;50.000;9.064;2022-09-09T06:52:13;99904.03;;;16.69
73734;BMP280;62039;50.000;9.064;2022-09-09T06:54:40;99896.31;;;16.74
73734;BMP280;62039;50.000;9.064;2022-09-09T06:57:06;99897.28;;;16.79
73734;BMP280;62039;50.000;9.064;2022-09-09T06:59:54;99898.28;;;16.85
73734;BMP280;62039;50.000;9.064;2022-09-09T07:02:21;99907.78;;;16.93
73734;BMP280;62039;50.000;9.064;2022-09-09T07:04:47;99911.00;;;17.01
73734;BMP280;62039;50.000;9.064;2022-09-09T07:07:14;99905.47;;;17.09
73734;BMP280;62039;50.000;9.064;2022-09-09T07:09:40;99915.34;;;17.20
73734;BMP280;62039;50.000;9.064;2022-09-09T07:12:07;99911.63;;;17.28
73734;BMP280;62039;50.000;9.064;2022-09-09T07:14:33;99905.09;;;17.37
73734;BMP280;62039;50.000;9.064;2022-09-09T07:17:01;99909.06;;;17.46
73734;BMP280;62039;50.000;9.064;2022-09-09T07:19:27;99913.50;;;17.52
73734;BMP280;62039;50.000;9.064;2022-09-09T07:21:54;99919.16;;;17.56
73734;BMP280;62039;50.000;9.064;2022-09-09T07:24:20;99911.03;;;17.57
73734;BMP280;62039;50.000;9.064;2022-09-09T07:26:47;99905.31;;;17.60
73734;BMP280;62039;50.000;9.064;2022-09-09T07:29:13;99913.41;;;17.66
73734;BMP280;62039;50.000;9.064;2022-09-09T07:31:45;99906.66;;;17.70
73734;BMP280;62039;50.000;9.064;2022-09-09T07:34:13;99914.31;;;17.78
73734;BMP280;62039;50.000;9.064;2022-09-09T07:36:40;99908.78;;;17.86
73734;BMP280;62039;50.000;9.064;2022-09-09T07:39:08;99914.34;;;17.96
73734;BMP280;62039;50.000;9.064;2022-09-09T07:41:37;99924.44;;;18.06
73734;BMP280;62039;50.000;9.064;2022-09-09T07:44:04;99919.28;;;18.11
73734;BMP280;62039;50.000;9.064;2022-09-09T07:46:32;99917.00;;;18.14
73734;BMP280;62039;50.000;9.064;2022-09-09T07:48:59;99914.16;;;18.16
73734;BMP280;62039;50.000;9.064;2022-09-09T07:51:28;99925.09;;;18.19
73734;BMP280;62039;50.000;9.064;2022-09-09T07:53:57;99916.72;;;18.22
73734;BMP280;62039;50.000;9.064;2022-09-09T07:56:25;99922.97;;;18.28
73734;BMP280;62039;50.000;9.064;2022-09-09T07:58:53;99918.88;;;18.32
73734;BMP280;62039;50.000;9.064;2022-09-09T08:01:22;99924.31;;;18.37
73734;BMP280;62039;50.000;9.064;2022-09-09T08:03:53;99930.75;;;18.41
73734;BMP280;62039;50.000;9.064;2022-09-09T08:06:22;99923.88;;;18.40
73734;BMP280;62039;50.000;9.064;2022-09-09T08:08:51;99938.25;;;18.44
73734;BMP280;62039;50.000;9.064;2022-09-09T08:11:17;99942.31;;;18.47
73734;BMP280;62039;50.000;9.064;2022-09-09T08:13:44;99937.81;;;18.47
73734;BMP280;62039;50.000;9.064;2022-09-09T08:16:13;99945.53;;;18.49
73734;BMP280;62039;50.000;9.064;2022-09-09T08:18:40;99949.19;;;18.48
73734;BMP280;62039;50.000;9.064;2022-09-09T08:21:08;99940.69;;;18.46
73734;BMP280;62039;50.000;9.064;2022-09-09T08:23:35;99947.22;;;18.43
73734;BMP280;62039;50.000;9.064;2022-09-09T08:26:05;99952.72;;;18.41
73734;BMP280;62039;50.000;9.064;2022-09-09T08:28:32;99950.09;;;18.41
73734;BMP280;62039;50.000;9.064;2022-09-09T08:31:05;99953.09;;;18.45
73734;BMP280;62039;50.000;9.064;2022-09-09T08:33:32;99955.75;;;18.45
73734;BMP280;62039;50.000;9.064;2022-09-09T08:35:59;99958.75;;;18.49
73734;BMP280;62039;50.000;9.064;2022-09-09T08:38:25;99959.94;;;18.53
73734;BMP280;62039;50.000;9.064;2022-09-09T08:40:53;99956.63;;;18.57
73734;BMP280;62039;50.000;9.064;2022-09-09T08:43:25;99955.72;;;18.63
73734;BMP280;62039;50.000;9.064;2022-09-09T08:45:58;99961.97;;;18.69
73734;BMP280;62039;50.000;9.064;2022-09-09T08:48:40;99956.25;;;18.72
73734;BMP280;62039;50.000;9.064;2022-09-09T08:51:09;99948.88;;;18.74
73734;BMP280;62039;50.000;9.064;2022-09-09T08:53:38;99946.97;;;18.81
73734;BMP280;62039;50.000;9.064;2022-09-09T08:56:10;99956.44;;;18.89
73734;BMP280;62039;50.000;9.064;2022-09-09T08:58:43;99951.88;;;18.96
73734;BMP280;62039;50.000;9.064;2022-09-09T09:01:26;99959.91;;;19.07
73734;BMP280;62039;50.000;9.064;2022-09-09T09:04:00;99961.53;;;19.20
73734;BMP280;62039;50.000;9.064;2022-09-09T09:06:39;99957.44;;;19.36
73734;BMP280;62039;50.000;9.064;2022-09-09T09:09:13;99958.84;;;19.50
73734;BMP280;62039;50.000;9.064;2022-09-09T09:11:45;99957.03;;;19.62
73734;BMP280;62039;50.000;9.064;2022-09-09T09:14:17;99945.44;;;19.75
73734;BMP280;62039;50.000;9.064;2022-09-09T09:16:50;99948.09;;;19.86
73734;BMP280;62039;50.000;9.064;2022-09-09T09:19:17;99948.78;;;19.93
73734;BMP280;62039;50.000;9.064;2022-09-09T09:21:46;99941.97;;;19.97
73734;BMP280;62039;50.000;9.064;2022-09-09T09:24:17;99943.38;;;20.00
73734;BMP280;62039;50.000;9.064;2022-09-09T09:26:47;99941.53;;;20.01
73734;BMP280;62039;50.000;9.064;2022-09-09T09:29:17;99943.94;;;20.02
73734;BMP280;62039;50.000;9.064;2022-09-09T09:31:46;99950.41;;;20.06
73734;BMP280;62039;50.000;9.064;2022-09-09T09:34:13;99949.09;;;20.09
73734;BMP280;62039;50.000;9.064;2022-09-09T09:36:42;99944.38;;;20.11
73734;BMP280;62039;50.000;9.064;2022-09-09T09:39:10;99935.41;;;20.12
73734;BMP280;62039;50.000;9.064;2022-09-09T09:41:57;99933.34;;;20.14
73734;BMP280;62039;50.000;9.064;2022-09-09T09:44:27;99938.19;;;20.17
73734;BMP280;62039;50.000;9.064;2022-09-09T09:47:05;99921.91;;;20.13
73734;BMP280;62039;50.000;9.064;2022-09-09T09:49:33;99926.41;;;20.13
73734;BMP280;62039;50.000;9.064;2022-09-09T09:52:00;99919.63;;;20.17
73734;BMP280;62039;50.000;9.064;2022-09-09T09:54:28;99922.63;;;20.20
73734;BMP280;62039;50.000;9.064;2022-09-09T09:56:56;99916.84;;;20.23
73734;BMP280;62039;50.000;9.064;2022-09-09T09:59:32;99906.38;;;20.28
73734;BMP280;62039;50.000;9.064;2022-09-09T10:02:17;99914.88;;;20.42
73734;BMP280;62039;50.000;9.064;2022-09-09T10:04:44;99911.69;;;20.57
73734;BMP280;62039;50.000;9.064;2022-09-09T10:07:12;99902.41;;;20.71
73734;BMP280;62039;50.000;9.064;2022-09-09T10:09:38;99910.34;;;20.83
73734;BMP280;62039;50.000;9.064;2022-09-09T10:12:12;99912.88;;;20.89
73734;BMP280;62039;50.000;9.064;2022-09-09T10:14:49;99909.97;;;20.91
73734;BMP280;62039;50.000;9.064;2022-09-09T10:17:24;99903.03;;;20.90
73734;BMP280;62039;50.000;9.064;2022-09-09T10:20:04;99900.97;;;20.92
73734;BMP280;62039;50.000;9.064;2022-09-09T10:22:40;99894.38;;;20.94
73734;BMP280;62039;50.000;9.064;2022-09-09T10:25:20;99902.59;;;20.93
73734;BMP280;62039;50.000;9.064;2022-09-09T10:28:08;99909.75;;;20.92
73734;BMP280;62039;50.000;9.064;2022-09-09T10:30:42;99903.53;;;20.87
73734;BMP280;62039;50.000;9.064;2022-09-09T10:33:16;99915.34;;;20.79
73734;BMP280;62039;50.000;9.064;2022-09-09T10:35:52;99914.41;;;20.73
73734;BMP280;62039;50.000;9.064;2022-09-09T10:38:25;99912.72;;;20.67
73734;BMP280;62039;50.000;9.064;2022-09-09T10:41:16;99918.59;;;20.58
73734;BMP280;62039;50.000;9.064;2022-09-09T10:43:56;99906.06;;;20.53
73734;BMP280;62039;50.000;9.064;2022-09-09T10:46:34;99912.09;;;20.49
73734;BMP280;62039;50.000;9.064;2022-09-09T10:49:16;99901.94;;;20.46
73734;BMP280;62039;50.000;9.064;2022-09-09T10:51:54;99905.84;;;20.43
73734;BMP280;62039;50.000;9.064;2022-09-09T10:54:31;99905.84;;;20.43
73734;BMP280;62039;50.000;9.064;2022-09-09T10:57:07;99910.69;;;20.46
73734;BMP280;62039;50.000;9.064;2022-09-09T10:59:38;99907.00;;;20.47
73734;BMP280;62039;50.000;9.064;2022-09-09T11:02:12;99902.59;;;20.53
73734;BMP280;62039;50.000;9.064;2022-09-09T11:04:42;99896.81;;;20.56
73734;BMP280;62039;50.000;9.064;2022-09-09T11:07:14;99899.00;;;20.59
73734;BMP280;62039;50.000;9.064;2022-09-09T11:09:48;99883.88;;;20.59
73734;BMP280;62039;50.000;9.064;2022-09-09T11:12:18;99874.41;;;20.63
73734;BMP280;62039;50.000;9.064;2022-09-09T11:14:49;99885.13;;;20.68
73734;BMP280;62039;50.000;9.064;2022-09-09T11:17:20;99876.69;;;20.71
73734;BMP280;62039;50.000;9.064;2022-09-09T11:19:49;99880.72;;;20.74
73734;BMP280;62039;50.000;9.064;2022-09-09T11:22:22;99891.69;;;20.77
73734;BMP280;62039;50.000;9.064;2022-09-09T11:24:54;99884.75;;;20.76
73734;BMP280;62039;50.000;9.064;2022-09-09T11:27:26;99884.22;;;20.74
73734;BMP280;62039;50.000;9.064;2022-09-09T11:30:12;99887.88;;;20.73
73734;BMP280;62039;50.000;9.064;2022-09-09T11:36:12;99882.38;;;20.75
73734;BMP280;62039;50.000;9.064;2022-09-09T11:38:45;99901.84;;;20.81
73734;BMP280;62039;50.000;9.064;2022-09-09T11:41:13;99910.69;;;20.86
73734;BMP280;62039;50.000;9.064;2022-09-09T11:43:48;99905.63;;;20.85
73734;BMP280;62039;50.000;9.064;2022-09-09T11:46:18;99912.91;;;20.77
73734;BMP280;62039;50.000;9.064;2022-09-09T11:48:57;99915.13;;;20.69
73734;BMP280;62039;50.000;9.064;2022-09-09T11:51:27;99925.84;;;20.62
73734;BMP280;62039;50.000;9.064;2022-09-09T11:53:56;99902.69;;;20.58
73734;BMP280;62039;50.000;9.064;2022-09-09T11:56:26;99903.50;;;20.58
73734;BMP280;62039;50.000;9.064;2022-09-09T11:58:58;99893.47;;;20.60
73734;BMP280;62039;50.000;9.064;2022-09-09T12:01:34;99903.59;;;20.63
73734;BMP280;62039;50.000;9.064;2022-09-09T12:04:15;99902.47;;;20.59
73734;BMP280;62039;50.000;9.064;2022-09-09T12:06:51;99897.88;;;20.55
73734;BMP280;62039;50.000;9.064;2022-09-09T12:09:24;99908.13;;;20.51
73734;BMP280;62039;50.000;9.064;2022-09-09T12:11:52;99905.72;;;20.50
73734;BMP280;62039;50.000;9.064;2022-09-09T12:14:23;99903.31;;;20.48
73734;BMP280;62039;50.000;9.064;2022-09-09T12:17:09;99901.22;;;20.50
73734;BMP280;62039;50.000;9.064;2022-09-09T12:19:36;99897.06;;;20.54
73734;BMP280;62039;50.000;9.064;2022-09-09T12:22:07;99896.44;;;20.64
73734;BMP280;62039;50.000;9.064;2022-09-09T12:24:43;99891.69;;;20.77
73734;BMP280;62039;50.000;9.064;2022-09-09T12:27:17;99886.88;;;20.91
73734;BMP280;62039;50.000;9.064;2022-09-09T12:29:51;99876.63;;;21.11
73734;BMP280;62039;50.000;9.064;2022-09-09T12:32:23;99884.09;;;21.31
73734;BMP280;62039;50.000;9.064;2022-09-09T12:34:53;99886.81;;;21.48
73734;BMP280;62039;50.000;9.064;2022-09-09T12:37:27;99878.25;;;21.63
73734;BMP280;62039;50.000;9.064;2022-09-09T12:39:56;99877.34;;;21.74
73734;BMP280;62039;50.000;9.064;2022-09-09T12:42:24;99866.31;;;21.82
73734;BMP280;62039;50.000;9.064;2022-09-09T12:44:51;99862.41;;;21.89
73734;BMP280;62039;50.000;9.064;2022-09-09T12:47:20;99869.16;;;21.97
73734;BMP280;62039;50.000;9.064;2022-09-09T12:49:52;99866.34;;;22.04
73734;BMP280;62039;50.000;9.064;2022-09-09T12:52:23;99854.97;;;22.08
73734;BMP280;62039;50.000;9.064;2022-09-09T12:54:51;99862.19;;;22.13
73734;BMP280;62039;50.000;9.064;2022-09-09T12:57:17;99860.41;;;22.18
73734;BMP280;62039;50.000;9.064;2022-09-09T12:59:44;99855.69;;;22.25
73734;BMP280;62039;50.000;9.064;2022-09-09T13:02:17;99854.22;;;22.35
73734;BMP280;62039;50.000;9.064;2022-09-09T13:04:45;99853.22;;;22.41
73734;BMP280;62039;50.000;9.064;2022-09-09T13:07:11;99851.41;;;22.46
73734;BMP280;62039;50.000;9.064;2022-09-09T13:09:39;99850.72;;;22.51
73734;BMP280;62039;50.000;9.064;2022-09-09T13:12:07;99850.72;;;22.51
73734;BMP280;62039;50.000;9.064;2022-09-09T13:14:38;99848.06;;;22.51
73734;BMP280;62039;50.000;9.064;2022-09-09T13:17:06;99848.50;;;22.48
73734;BMP280;62039;50.000;9.064;2022-09-09T13:19:35;99852.16;;;22.42
73734;BMP280;62039;50.000;9.064;2022-09-09T13:22:11;99842.19;;;22.32
73734;BMP280;62039;50.000;9.064;2022-09-09T13:24:39;99832.19;;;22.17
73734;BMP280;62039;50.000;9.064;2022-09-09T13:27:24;99845.81;;;21.99
73734;BMP280;62039;50.000;9.064;2022-09-09T13:29:53;99840.81;;;21.86
73734;BMP280;62039;50.000;9.064;2022-09-09T13:32:20;99840.72;;;21.76
73734;BMP280;62039;50.000;9.064;2022-09-09T13:34:51;99839.50;;;21.67
73734;BMP280;62039;50.000;9.064;2022-09-09T13:37:23;99842.03;;;21.57
73734;BMP280;62039;50.000;9.064;2022-09-09T13:39:53;99839.78;;;21.48
73734;BMP280;62039;50.000;9.064;2022-09-09T13:42:24;99846.06;;;21.42
73734;BMP280;62039;50.000;9.064;2022-09-09T13:44:51;99854.44;;;21.34
73734;BMP280;62039;50.000;9.064;2022-09-09T13:47:19;99857.47;;;21.26
73734;BMP280;62039;50.000;9.064;2022-09-09T13:49:46;99856.59;;;21.21
73734;BMP280;62039;50.000;9.064;2022-09-09T13:52:14;99858.91;;;21.17
73734;BMP280;62039;50.000;9.064;2022-09-09T13:54:41;99852.47;;;21.13
73734;BMP280;62039;50.000;9.064;2022-09-09T13:57:16;99859.34;;;21.09
73734;BMP280;62039;50.000;9.064;2022-09-09T13:59:43;99858.19;;;21.05
73734;BMP280;62039;50.000;9.064;2022-09-09T14:02:29;99862.91;;;21.03
73734;BMP280;62039;50.000;9.064;2022-09-09T14:04:56;99875.41;;;21.02
73734;BMP280;62039;50.000;9.064;2022-09-09T14:07:22;99871.97;;;21.02
73734;BMP280;62039;50.000;9.064;2022-09-09T14:09:49;99886.28;;;21.01
73734;BMP280;62039;50.000;9.064;2022-09-09T14:12:17;99886.75;;;20.98
73734;BMP280;62039;50.000;9.064;2022-09-09T14:14:43;99890.44;;;20.97
73734;BMP280;62039;50.000;9.064;2022-09-09T14:17:10;99886.66;;;20.93
73734;BMP280;62039;50.000;9.064;2022-09-09T14:19:37;99896.38;;;20.87
73734;BMP280;62039;50.000;9.064;2022-09-09T14:22:03;99906.66;;;20.84
73734;BMP280;62039;50.000;9.064;2022-09-09T14:24:30;99915.66;;;20.83
73734;BMP280;62039;50.000;9.064;2022-09-09T14:26:56;99912.22;;;20.82
73734;BMP280;62039;50.000;9.064;2022-09-09T14:29:24;99911.97;;;20.84